createdAt,value
2017-02-26T00:01:12.633Z,63
2017-02-26T00:02:26.817Z,63
2017-02-26T00:03:42.148Z,63
2017-02-26T00:04:56.674Z,63
2017-02-26T00:06:11.216Z,63
2017-02-26T00:07:25.329Z,63
2017-02-26T00:08:39.846Z,63
2017-02-26T00:09:54.361Z,63
2017-02-26T00:11:08.993Z,63
2017-02-26T00:12:23.545Z,63
2017-02-26T00:13:38.183Z,63
2017-02-26T00:14:52.522Z,63
2017-02-26T00:16:07.173Z,63
2017-02-26T00:17:21.354Z,63
2017-02-26T00:18:35.789Z,63
2017-02-26T00:19:50.926Z,63
2017-02-26T00:21:05.574Z,63
2017-02-26T00:22:20.225Z,63
2017-02-26T00:23:34.870Z,63
2017-02-26T00:24:49.242Z,63
2017-02-26T00:26:03.528Z,63
2017-02-26T00:27:18.733Z,63
2017-02-26T00:28:33.301Z,64
2017-02-26T00:29:48.374Z,64
2017-02-26T00:31:03.079Z,64
2017-02-26T00:32:17.782Z,64
2017-02-26T00:33:32.153Z,64
2017-02-26T00:34:46.455Z,64
2017-02-26T00:36:01.139Z,64
2017-02-26T00:37:16.029Z,64
2017-02-26T00:38:32.108Z,63
2017-02-26T00:39:46.176Z,63
2017-02-26T00:41:01.167Z,63
2017-02-26T00:42:15.414Z,63
2017-02-26T00:43:29.668Z,63
2017-02-26T00:44:43.716Z,63
2017-02-26T00:45:58.344Z,63
2017-02-26T00:47:12.928Z,63
2017-02-26T00:48:26.998Z,63
2017-02-26T00:49:41.408Z,63
2017-02-26T00:50:55.995Z,63
2017-02-26T00:52:10.314Z,63
2017-02-26T00:53:24.437Z,63
2017-02-26T00:54:38.944Z,63
2017-02-26T00:55:53.086Z,63
2017-02-26T00:57:10.330Z,63
2017-02-26T00:58:24.934Z,63
2017-02-26T00:59:39.863Z,63
2017-02-26T01:00:53.940Z,63
2017-02-26T01:02:08.087Z,63
2017-02-26T01:03:22.204Z,63
2017-02-26T01:04:36.766Z,63
2017-02-26T01:05:50.922Z,63
2017-02-26T01:07:05.147Z,63
2017-02-26T01:08:19.893Z,63
2017-02-26T01:09:33.975Z,63
2017-02-26T01:10:48.625Z,63
2017-02-26T01:12:04.455Z,63
2017-02-26T01:13:18.951Z,63
2017-02-26T01:14:33.551Z,63
2017-02-26T01:15:48.316Z,63
2017-02-26T01:17:02.968Z,63
2017-02-26T01:18:17.207Z,63
2017-02-26T01:19:31.421Z,63
2017-02-26T01:20:46.009Z,63
2017-02-26T01:22:00.896Z,62
2017-02-26T01:23:15.402Z,63
2017-02-26T01:24:29.454Z,62
2017-02-26T01:25:44.911Z,62
2017-02-26T01:26:59.640Z,62
2017-02-26T01:28:14.388Z,62
2017-02-26T01:29:28.941Z,62
2017-02-26T01:30:43.173Z,62
2017-02-26T01:31:59.154Z,62
2017-02-26T01:33:13.220Z,62
2017-02-26T01:34:27.382Z,62
2017-02-26T01:35:42.983Z,62
2017-02-26T01:36:57.093Z,62
2017-02-26T01:38:12.264Z,62
2017-02-26T01:39:26.906Z,62
2017-02-26T01:40:41.313Z,62
2017-02-26T01:41:55.511Z,62
2017-02-26T01:43:09.749Z,62
2017-02-26T01:44:23.831Z,62
2017-02-26T01:45:38.023Z,62
2017-02-26T01:46:52.395Z,62
2017-02-26T01:48:07.105Z,62
2017-02-26T01:49:22.018Z,62
2017-02-26T01:50:36.130Z,62
2017-02-26T01:51:50.740Z,62
2017-02-26T01:53:06.212Z,62
2017-02-26T01:54:20.863Z,62
2017-02-26T01:55:35.777Z,62
2017-02-26T01:56:50.065Z,62
2017-02-26T01:58:04.261Z,62
2017-02-26T02:00:54.312Z,62
2017-02-26T02:02:10.003Z,62
2017-02-26T02:03:24.109Z,62
2017-02-26T02:04:38.240Z,62
2017-02-26T02:05:52.880Z,62
2017-02-26T02:07:07.404Z,62
2017-02-26T02:08:22.548Z,62
2017-02-26T02:09:37.180Z,62
2017-02-26T02:10:51.673Z,62
2017-02-26T02:12:06.788Z,62
2017-02-26T02:13:22.161Z,62
2017-02-26T02:14:37.773Z,62
2017-02-26T02:15:55.601Z,62
2017-02-26T02:17:10.178Z,62
2017-02-26T02:18:24.437Z,62
2017-02-26T02:19:39.124Z,62
2017-02-26T02:20:53.541Z,62
2017-02-26T02:22:08.182Z,62
2017-02-26T02:23:22.759Z,62
2017-02-26T02:24:39.291Z,62
2017-02-26T02:25:53.801Z,62
2017-02-26T02:27:07.995Z,62
2017-02-26T02:28:22.903Z,62
2017-02-26T02:29:37.178Z,62
2017-02-26T02:30:51.322Z,62
2017-02-26T02:32:06.399Z,62
2017-02-26T02:33:20.593Z,62
2017-02-26T02:34:35.875Z,62
2017-02-26T02:35:50.062Z,62
2017-02-26T02:37:05.822Z,62
2017-02-26T02:38:20.534Z,62
2017-02-26T02:39:35.558Z,62
2017-02-26T02:40:50.136Z,62
2017-02-26T02:42:04.289Z,62
2017-02-26T02:43:19.122Z,62
2017-02-26T02:44:33.478Z,62
2017-02-26T02:45:47.633Z,62
2017-02-26T02:47:03.672Z,62
2017-02-26T02:48:17.826Z,62
2017-02-26T02:49:31.931Z,62
2017-02-26T02:50:46.568Z,62
2017-02-26T02:52:00.964Z,62
2017-02-26T02:53:15.728Z,62
2017-02-26T02:54:30.335Z,62
2017-02-26T02:55:44.576Z,62
2017-02-26T02:56:59.325Z,62
2017-02-26T02:58:14.057Z,62
2017-02-26T02:59:28.170Z,62
2017-02-26T03:00:42.506Z,62
2017-02-26T03:01:57.695Z,63
2017-02-26T03:03:12.586Z,63
2017-02-26T03:04:27.212Z,63
2017-02-26T03:05:41.486Z,63
2017-02-26T03:06:55.570Z,63
2017-02-26T03:08:09.720Z,63
2017-02-26T03:09:24.505Z,63
2017-02-26T03:10:39.165Z,63
2017-02-26T03:11:53.538Z,62
2017-02-26T03:13:08.037Z,62
2017-02-26T03:14:23.030Z,62
2017-02-26T03:15:37.593Z,62
2017-02-26T03:16:53.436Z,62
2017-02-26T03:18:08.802Z,62
2017-02-26T03:19:23.685Z,62
2017-02-26T03:20:37.774Z,62
2017-02-26T03:21:52.291Z,62
2017-02-26T03:23:06.406Z,62
2017-02-26T03:24:20.555Z,62
2017-02-26T03:25:34.608Z,62
2017-02-26T03:26:48.830Z,62
2017-02-26T03:28:03.048Z,62
2017-02-26T03:29:17.242Z,62
2017-02-26T03:30:31.872Z,62
2017-02-26T03:31:45.990Z,62
2017-02-26T03:33:03.305Z,62
2017-02-26T03:34:17.618Z,62
2017-02-26T03:35:31.820Z,62
2017-02-26T03:36:47.003Z,62
2017-02-26T03:38:02.543Z,62
2017-02-26T03:39:16.777Z,62
2017-02-26T03:40:31.321Z,62
2017-02-26T03:41:45.520Z,62
2017-02-26T03:43:00.128Z,62
2017-02-26T03:44:15.152Z,62
2017-02-26T03:45:30.133Z,62
2017-02-26T03:46:45.121Z,62
2017-02-26T03:47:59.153Z,62
2017-02-26T03:49:13.728Z,62
2017-02-26T03:50:28.328Z,62
2017-02-26T03:51:42.403Z,62
2017-02-26T03:52:57.017Z,62
2017-02-26T03:54:11.641Z,62
2017-02-26T03:55:25.988Z,62
2017-02-26T03:56:40.844Z,62
2017-02-26T03:57:55.467Z,62
2017-02-26T03:59:10.618Z,62
2017-02-26T04:00:25.338Z,62
2017-02-26T04:01:39.416Z,62
2017-02-26T04:02:53.944Z,62
2017-02-26T04:04:08.468Z,62
2017-02-26T04:05:22.969Z,62
2017-02-26T04:06:37.169Z,62
2017-02-26T04:07:52.409Z,62
2017-02-26T04:09:07.093Z,62
2017-02-26T04:10:21.190Z,62
2017-02-26T04:11:35.951Z,62
2017-02-26T04:12:51.358Z,62
2017-02-26T04:14:07.034Z,62
2017-02-26T04:15:21.184Z,63
2017-02-26T04:16:36.195Z,63
2017-02-26T04:17:50.550Z,63
2017-02-26T04:19:04.627Z,63
2017-02-26T04:20:18.952Z,63
2017-02-26T04:21:34.080Z,63
2017-02-26T04:22:49.937Z,63
2017-02-26T04:24:04.894Z,63
2017-02-26T04:25:19.847Z,63
2017-02-26T04:26:34.616Z,62
2017-02-26T04:27:49.866Z,63
2017-02-26T04:29:04.583Z,63
2017-02-26T04:30:20.093Z,63
2017-02-26T04:31:35.335Z,63
2017-02-26T04:32:49.949Z,63
2017-02-26T04:34:04.838Z,63
2017-02-26T04:35:19.694Z,63
2017-02-26T04:36:35.112Z,63
2017-02-26T04:37:50.334Z,63
2017-02-26T04:39:04.893Z,63
2017-02-26T04:40:19.014Z,63
2017-02-26T04:41:39.826Z,63
2017-02-26T04:42:54.692Z,63
2017-02-26T04:44:08.854Z,63
2017-02-26T04:45:23.478Z,63
2017-02-26T04:46:38.041Z,63
2017-02-26T04:47:52.276Z,63
2017-02-26T04:49:08.227Z,63
2017-02-26T04:50:24.725Z,63
2017-02-26T04:51:39.708Z,63
2017-02-26T04:52:53.888Z,63
2017-02-26T04:54:09.173Z,63
2017-02-26T04:55:23.319Z,63
2017-02-26T04:56:37.881Z,63
2017-02-26T04:57:51.990Z,63
2017-02-26T04:59:06.149Z,63
2017-02-26T05:00:20.285Z,63
2017-02-26T05:01:34.511Z,63
2017-02-26T05:02:48.778Z,63
2017-02-26T05:04:03.284Z,63
2017-02-26T05:05:17.291Z,63
2017-02-26T05:06:31.939Z,63
2017-02-26T05:07:46.059Z,63
2017-02-26T05:09:00.315Z,63
2017-02-26T05:10:14.909Z,63
2017-02-26T05:11:28.938Z,63
2017-02-26T05:12:43.115Z,63
2017-02-26T05:13:57.237Z,63
2017-02-26T05:15:11.750Z,63
2017-02-26T05:16:25.784Z,63
2017-02-26T05:17:40.024Z,63
2017-02-26T05:18:54.146Z,63
2017-02-26T05:20:08.657Z,63
2017-02-26T05:21:22.808Z,63
2017-02-26T05:22:36.985Z,63
2017-02-26T05:23:51.504Z,63
2017-02-26T05:25:05.520Z,63
2017-02-26T05:26:19.539Z,63
2017-02-26T05:27:34.272Z,63
2017-02-26T05:28:48.410Z,63
2017-02-26T05:30:02.610Z,63
2017-02-26T05:31:17.653Z,63
2017-02-26T05:32:32.546Z,63
2017-02-26T05:33:46.650Z,63
2017-02-26T05:35:00.927Z,63
2017-02-26T05:36:14.915Z,63
2017-02-26T05:37:29.050Z,63
2017-02-26T05:38:43.204Z,63
2017-02-26T05:39:57.724Z,63
2017-02-26T05:41:12.306Z,63
2017-02-26T05:42:27.174Z,63
2017-02-26T05:43:42.124Z,63
2017-02-26T05:44:56.143Z,63
2017-02-26T05:46:10.613Z,63
2017-02-26T05:47:24.783Z,63
2017-02-26T05:48:39.711Z,63
2017-02-26T05:49:53.752Z,63
2017-02-26T05:51:08.351Z,63
2017-02-26T05:52:22.842Z,63
2017-02-26T05:53:37.023Z,63
2017-02-26T05:54:51.558Z,63
2017-02-26T05:56:05.669Z,63
2017-02-26T05:57:20.381Z,63
2017-02-26T05:58:34.444Z,63
2017-02-26T05:59:49.862Z,63
2017-02-26T06:01:04.839Z,63
2017-02-26T06:02:18.882Z,63
2017-02-26T06:03:33.426Z,63
2017-02-26T06:04:47.555Z,63
2017-02-26T06:06:01.639Z,63
2017-02-26T06:07:18.495Z,63
2017-02-26T06:08:32.662Z,63
2017-02-26T06:09:47.248Z,63
2017-02-26T06:11:01.557Z,63
2017-02-26T06:12:15.679Z,63
2017-02-26T06:13:29.942Z,63
2017-02-26T06:14:44.091Z,63
2017-02-26T06:15:58.197Z,63
2017-02-26T06:17:12.213Z,63
2017-02-26T06:18:26.216Z,63
2017-02-26T06:19:40.805Z,63
2017-02-26T06:20:57.176Z,63
2017-02-26T06:22:12.091Z,63
2017-02-26T06:23:26.790Z,63
2017-02-26T06:24:41.415Z,63
2017-02-26T06:25:56.109Z,63
2017-02-26T06:27:10.673Z,63
2017-02-26T06:28:24.796Z,63
2017-02-26T06:29:39.548Z,63
2017-02-26T06:30:53.636Z,63
2017-02-26T06:32:08.212Z,63
2017-02-26T06:33:22.310Z,63
2017-02-26T06:34:37.457Z,63
2017-02-26T06:35:51.908Z,63
2017-02-26T06:37:06.078Z,63
2017-02-26T06:38:21.663Z,63
2017-02-26T06:39:35.872Z,63
2017-02-26T06:40:50.038Z,63
2017-02-26T06:42:04.870Z,63
2017-02-26T06:43:19.901Z,63
2017-02-26T06:44:35.731Z,63
2017-02-26T06:45:50.463Z,63
2017-02-26T06:47:05.366Z,63
2017-02-26T06:48:19.996Z,63
2017-02-26T06:49:34.616Z,63
2017-02-26T06:50:49.205Z,63
2017-02-26T06:52:03.749Z,63
2017-02-26T06:53:18.463Z,63
2017-02-26T06:54:33.003Z,63
2017-02-26T06:55:47.048Z,63
2017-02-26T06:57:01.648Z,63
2017-02-26T06:58:16.030Z,63
2017-02-26T06:59:30.577Z,63
2017-02-26T07:00:44.962Z,63
2017-02-26T07:01:59.006Z,63
2017-02-26T07:05:53.457Z,63
2017-02-26T07:07:08.634Z,63
2017-02-26T07:08:23.564Z,63
2017-02-26T07:09:38.011Z,63
2017-02-26T07:10:52.048Z,63
2017-02-26T07:12:06.548Z,63
2017-02-26T07:13:21.117Z,63
2017-02-26T07:14:35.214Z,63
2017-02-26T07:15:49.662Z,63
2017-02-26T07:17:03.710Z,63
2017-02-26T07:18:18.140Z,63
2017-02-26T07:19:32.543Z,63
2017-02-26T07:20:47.656Z,63
2017-02-26T07:22:02.672Z,63
2017-02-26T07:23:17.152Z,63
2017-02-26T07:24:31.170Z,63
2017-02-26T07:25:45.285Z,63
2017-02-26T07:27:01.671Z,63
2017-02-26T07:28:16.274Z,63
2017-02-26T07:29:31.241Z,63
2017-02-26T07:30:46.232Z,63
2017-02-26T07:32:01.276Z,63
2017-02-26T07:33:15.874Z,63
2017-02-26T07:34:30.406Z,63
2017-02-26T07:35:44.494Z,63
2017-02-26T07:36:58.784Z,63
2017-02-26T07:38:14.428Z,63
2017-02-26T07:39:28.477Z,63
2017-02-26T07:40:43.124Z,63
2017-02-26T07:41:57.282Z,63
2017-02-26T07:43:11.718Z,64
2017-02-26T07:44:25.914Z,64
2017-02-26T07:45:41.018Z,64
2017-02-26T07:46:55.119Z,64
2017-02-26T07:48:10.915Z,64
2017-02-26T07:49:26.048Z,64
2017-02-26T07:50:40.158Z,64
2017-02-26T07:51:54.827Z,64
2017-02-26T07:53:09.942Z,64
2017-02-26T07:54:24.639Z,64
2017-02-26T07:55:39.127Z,64
2017-02-26T07:56:53.231Z,64
2017-02-26T07:58:08.233Z,64
2017-02-26T07:59:23.189Z,64
2017-02-26T08:00:37.643Z,64
2017-02-26T08:01:53.514Z,64
2017-02-26T08:03:08.178Z,64
2017-02-26T08:04:22.701Z,64
2017-02-26T08:05:38.796Z,64
2017-02-26T08:06:55.248Z,64
2017-02-26T08:08:12.556Z,64
2017-02-26T08:09:26.888Z,64
2017-02-26T08:10:42.213Z,64
2017-02-26T08:12:00.400Z,64
2017-02-26T08:13:15.402Z,64
2017-02-26T08:14:29.711Z,64
2017-02-26T08:15:43.838Z,64
2017-02-26T08:17:03.464Z,64
2017-02-26T08:18:18.718Z,64
2017-02-26T08:19:32.894Z,64
2017-02-26T08:20:47.450Z,64
2017-02-26T08:22:02.610Z,64
2017-02-26T08:23:16.778Z,64
2017-02-26T08:24:31.868Z,64
2017-02-26T08:25:46.575Z,64
2017-02-26T08:27:01.217Z,65
2017-02-26T08:28:15.286Z,65
2017-02-26T08:29:30.543Z,65
2017-02-26T08:30:44.652Z,65
2017-02-26T08:31:59.281Z,65
2017-02-26T08:33:13.417Z,65
2017-02-26T08:34:27.473Z,65
2017-02-26T08:35:41.691Z,65
2017-02-26T08:36:56.530Z,65
2017-02-26T08:38:10.694Z,65
2017-02-26T08:39:25.854Z,65
2017-02-26T08:40:39.933Z,65
2017-02-26T08:41:56.520Z,66
2017-02-26T08:43:11.132Z,66
2017-02-26T08:44:28.364Z,66
2017-02-26T08:45:42.363Z,66
2017-02-26T08:46:56.839Z,66
2017-02-26T08:48:11.584Z,66
2017-02-26T08:49:26.599Z,66
2017-02-26T08:50:41.130Z,66
2017-02-26T08:51:55.682Z,66
2017-02-26T08:53:10.744Z,66
2017-02-26T08:54:25.322Z,66
2017-02-26T08:55:39.891Z,66
2017-02-26T08:56:54.881Z,66
2017-02-26T08:58:09.439Z,66
2017-02-26T08:59:23.971Z,66
2017-02-26T09:00:39.077Z,66
2017-02-26T09:01:53.621Z,66
2017-02-26T09:03:09.721Z,66
2017-02-26T09:04:24.835Z,66
2017-02-26T09:05:40.093Z,67
2017-02-26T09:06:56.811Z,67
2017-02-26T09:08:12.427Z,67
2017-02-26T09:09:26.566Z,67
2017-02-26T09:10:41.234Z,67
2017-02-26T09:11:56.775Z,67
2017-02-26T09:13:11.427Z,67
2017-02-26T09:14:26.270Z,67
2017-02-26T09:15:42.213Z,67
2017-02-26T09:16:56.825Z,67
2017-02-26T09:18:12.509Z,67
2017-02-26T09:19:27.710Z,67
2017-02-26T09:20:41.953Z,67
2017-02-26T09:21:56.207Z,67
2017-02-26T09:23:13.378Z,67
2017-02-26T09:24:27.944Z,67
2017-02-26T09:25:44.190Z,67
2017-02-26T09:27:00.205Z,67
2017-02-26T09:28:15.481Z,67
2017-02-26T09:29:31.580Z,67
2017-02-26T09:30:46.210Z,67
2017-02-26T09:32:02.087Z,67
2017-02-26T09:33:16.825Z,67
2017-02-26T09:34:31.625Z,67
2017-02-26T09:35:46.720Z,67
2017-02-26T09:37:00.760Z,67
2017-02-26T09:38:14.907Z,66
2017-02-26T09:39:29.890Z,66
2017-02-26T09:40:44.627Z,66
2017-02-26T09:42:00.873Z,66
2017-02-26T09:43:14.960Z,66
2017-02-26T09:44:29.713Z,66
2017-02-26T09:45:46.200Z,66
2017-02-26T09:47:01.503Z,66
2017-02-26T09:48:15.612Z,66
2017-02-26T09:49:30.209Z,66
2017-02-26T09:50:45.018Z,66
2017-02-26T09:51:59.744Z,66
2017-02-26T09:53:14.599Z,66
2017-02-26T09:54:30.132Z,66
2017-02-26T09:55:44.451Z,66
2017-02-26T09:56:58.607Z,66
2017-02-26T09:58:12.765Z,66
2017-02-26T09:59:27.681Z,66
2017-02-26T10:00:42.292Z,66
2017-02-26T10:02:00.180Z,66
2017-02-26T10:03:15.667Z,66
2017-02-26T10:04:30.404Z,66
2017-02-26T10:05:45.525Z,66
2017-02-26T10:06:59.777Z,66
2017-02-26T10:08:15.943Z,66
2017-02-26T10:09:31.442Z,66
2017-02-26T10:10:46.920Z,66
2017-02-26T10:12:01.802Z,66
2017-02-26T10:13:16.085Z,66
2017-02-26T10:14:30.279Z,66
2017-02-26T10:15:44.396Z,66
2017-02-26T10:16:58.995Z,66
2017-02-26T10:18:13.698Z,66
2017-02-26T10:19:27.977Z,66
2017-02-26T10:20:42.724Z,66
2017-02-26T10:21:57.800Z,67
2017-02-26T10:23:12.516Z,67
2017-02-26T10:24:27.304Z,67
2017-02-26T10:25:42.424Z,67
2017-02-26T10:26:56.772Z,67
2017-02-26T10:28:12.220Z,67
2017-02-26T10:29:26.496Z,67
2017-02-26T10:30:40.783Z,67
2017-02-26T10:31:55.516Z,67
2017-02-26T10:33:10.387Z,67
2017-02-26T10:34:24.946Z,67
2017-02-26T10:35:40.045Z,67
2017-02-26T10:36:54.963Z,67
2017-02-26T10:38:09.713Z,67
2017-02-26T10:39:25.011Z,67
2017-02-26T10:40:41.078Z,67
2017-02-26T10:41:57.402Z,67
2017-02-26T10:43:12.348Z,67
2017-02-26T10:44:30.547Z,67
2017-02-26T10:45:48.690Z,68
2017-02-26T10:47:06.073Z,68
2017-02-26T10:48:24.822Z,68
2017-02-26T10:49:43.705Z,68
2017-02-26T10:51:04.461Z,68
2017-02-26T10:52:23.412Z,68
2017-02-26T10:53:39.670Z,68
2017-02-26T10:54:55.943Z,68
2017-02-26T10:56:13.465Z,68
2017-02-26T10:57:31.740Z,68
2017-02-26T10:58:47.875Z,68
2017-02-26T11:00:05.312Z,68
2017-02-26T11:01:22.690Z,68
2017-02-26T11:02:41.594Z,68
2017-02-26T11:03:59.234Z,68
2017-02-26T11:05:17.191Z,68
2017-02-26T11:06:35.516Z,68
2017-02-26T11:08:08.538Z,68
2017-02-26T11:09:33.094Z,68
2017-02-26T11:10:59.650Z,68
2017-02-26T11:12:23.838Z,68
2017-02-26T11:13:51.403Z,68
2017-02-26T11:15:14.144Z,68
2017-02-26T11:16:32.387Z,68
2017-02-26T11:17:56.013Z,68
2017-02-26T11:19:20.584Z,68
2017-02-26T11:20:46.257Z,68
2017-02-26T11:22:15.523Z,68
2017-02-26T11:23:42.119Z,68
2017-02-26T11:25:07.245Z,68
2017-02-26T11:26:32.091Z,68
2017-02-26T11:27:56.006Z,68
2017-02-26T11:29:23.459Z,68
2017-02-26T11:30:47.012Z,68
2017-02-26T11:32:13.921Z,68
2017-02-26T11:33:34.204Z,69
2017-02-26T11:35:00.393Z,69
2017-02-26T11:36:25.221Z,69
2017-02-26T11:37:49.727Z,69
2017-02-26T11:39:16.322Z,69
2017-02-26T11:40:41.243Z,69
2017-02-26T11:42:03.990Z,69
2017-02-26T11:43:23.464Z,69
2017-02-26T11:44:48.726Z,69
2017-02-26T11:46:12.089Z,69
2017-02-26T11:47:37.018Z,69
2017-02-26T11:49:01.710Z,69
2017-02-26T11:50:27.412Z,69
2017-02-26T11:51:55.332Z,69
2017-02-26T11:53:16.493Z,69
2017-02-26T11:54:41.055Z,69
2017-02-26T11:56:06.650Z,69
2017-02-26T11:57:34.079Z,69
2017-02-26T11:58:59.257Z,69
2017-02-26T12:00:28.802Z,69
2017-02-26T12:01:55.351Z,69
2017-02-26T12:03:21.593Z,70
2017-02-26T12:04:48.196Z,70
2017-02-26T12:06:12.330Z,70
2017-02-26T12:07:37.561Z,70
2017-02-26T12:09:02.830Z,70
2017-02-26T12:10:29.688Z,70
2017-02-26T12:11:57.800Z,70
2017-02-26T12:13:24.925Z,70
2017-02-26T12:14:52.381Z,70
2017-02-26T12:16:16.271Z,70
2017-02-26T12:17:36.387Z,70
2017-02-26T12:19:01.243Z,70
2017-02-26T12:20:26.684Z,70
2017-02-26T12:21:48.529Z,70
2017-02-26T12:23:07.494Z,70
2017-02-26T12:24:28.571Z,70
2017-02-26T12:25:55.952Z,70
2017-02-26T12:27:19.197Z,70
2017-02-26T12:28:45.039Z,70
2017-02-26T12:30:10.420Z,70
2017-02-26T12:31:34.335Z,70
2017-02-26T12:32:59.251Z,70
2017-02-26T12:34:18.263Z,70
2017-02-26T12:35:37.993Z,70
2017-02-26T12:36:56.642Z,70
2017-02-26T12:38:14.280Z,70
2017-02-26T12:39:32.880Z,70
2017-02-26T12:40:53.335Z,70
2017-02-26T12:42:11.097Z,70
2017-02-26T12:43:32.946Z,70
2017-02-26T12:44:52.815Z,70
2017-02-26T12:46:11.693Z,70
2017-02-26T12:47:35.526Z,70
2017-02-26T12:49:04.225Z,71
2017-02-26T12:50:24.040Z,71
2017-02-26T12:51:43.651Z,71
2017-02-26T12:53:03.319Z,71
2017-02-26T12:54:20.542Z,71
2017-02-26T12:55:43.262Z,71
2017-02-26T12:57:04.453Z,71
2017-02-26T12:58:27.620Z,71
2017-02-26T12:59:47.559Z,71
2017-02-26T13:01:14.197Z,71
2017-02-26T13:02:41.285Z,71
2017-02-26T13:04:03.697Z,71
2017-02-26T13:05:30.197Z,71
2017-02-26T13:06:55.941Z,71
2017-02-26T13:08:18.464Z,71
2017-02-26T13:09:41.307Z,71
2017-02-26T13:10:59.556Z,71
2017-02-26T13:12:35.271Z,71
2017-02-26T13:13:54.000Z,71
2017-02-26T13:15:18.860Z,72
2017-02-26T13:16:42.502Z,72
2017-02-26T13:18:08.630Z,72
2017-02-26T13:19:34.281Z,72
2017-02-26T13:20:59.732Z,72
2017-02-26T13:22:20.884Z,72
2017-02-26T13:23:41.036Z,72
2017-02-26T13:25:06.304Z,72
2017-02-26T13:26:30.667Z,72
2017-02-26T13:27:54.375Z,72
2017-02-26T13:29:17.799Z,72
2017-02-26T13:30:41.564Z,71
2017-02-26T13:32:04.636Z,71
2017-02-26T13:33:27.175Z,72
2017-02-26T13:34:43.850Z,71
2017-02-26T13:36:02.879Z,72
2017-02-26T13:37:20.096Z,72
2017-02-26T13:38:35.218Z,72
2017-02-26T13:39:50.030Z,72
2017-02-26T13:41:05.048Z,72
2017-02-26T13:42:19.154Z,72
2017-02-26T13:43:35.718Z,72
2017-02-26T13:44:52.611Z,72
2017-02-26T13:46:07.206Z,72
2017-02-26T13:47:24.676Z,72
2017-02-26T13:48:39.908Z,72
2017-02-26T13:49:55.597Z,72
2017-02-26T13:51:10.390Z,72
2017-02-26T13:52:25.155Z,72
2017-02-26T13:53:40.113Z,72
2017-02-26T13:54:55.214Z,72
2017-02-26T13:56:09.909Z,72
2017-02-26T13:57:24.113Z,72
2017-02-26T13:58:38.358Z,72
2017-02-26T13:59:53.398Z,72
2017-02-26T14:01:09.042Z,72
2017-02-26T14:02:23.228Z,72
2017-02-26T14:03:37.746Z,72
2017-02-26T14:04:52.793Z,72
2017-02-26T14:06:08.607Z,72
2017-02-26T14:07:22.657Z,72
2017-02-26T14:08:37.171Z,72
2017-02-26T14:09:51.301Z,72
2017-02-26T14:11:08.969Z,72
2017-02-26T14:12:25.307Z,72
2017-02-26T14:13:39.779Z,72
2017-02-26T14:14:54.890Z,72
2017-02-26T14:16:13.966Z,72
2017-02-26T14:17:30.862Z,72
2017-02-26T14:18:45.233Z,72
2017-02-26T14:19:59.917Z,72
2017-02-26T14:21:14.157Z,72
2017-02-26T14:22:29.513Z,72
2017-02-26T14:23:45.568Z,72
2017-02-26T14:24:59.738Z,72
2017-02-26T14:26:14.695Z,72
2017-02-26T14:27:29.049Z,72
2017-02-26T14:28:43.144Z,72
2017-02-26T14:29:57.867Z,72
2017-02-26T14:31:12.334Z,72
2017-02-26T14:32:27.915Z,72
2017-02-26T14:33:43.136Z,72
2017-02-26T14:34:57.965Z,72
2017-02-26T14:36:12.703Z,72
2017-02-26T14:37:26.948Z,72
2017-02-26T14:38:41.342Z,72
2017-02-26T14:39:56.361Z,72
2017-02-26T14:41:11.398Z,72
2017-02-26T14:42:27.825Z,72
2017-02-26T14:43:43.937Z,72
2017-02-26T14:44:58.689Z,72
2017-02-26T14:46:13.957Z,72
2017-02-26T14:47:29.165Z,73
2017-02-26T14:48:45.135Z,73
2017-02-26T14:50:02.458Z,73
2017-02-26T14:51:17.498Z,73
2017-02-26T14:52:33.029Z,73
2017-02-26T14:53:50.700Z,73
2017-02-26T14:55:07.236Z,73
2017-02-26T14:56:23.108Z,73
2017-02-26T14:57:38.428Z,73
2017-02-26T14:58:54.078Z,73
2017-02-26T15:00:10.422Z,73
2017-02-26T15:01:26.073Z,73
2017-02-26T15:02:41.512Z,73
2017-02-26T15:03:59.008Z,73
2017-02-26T15:05:14.581Z,73
2017-02-26T15:06:31.522Z,73
2017-02-26T15:07:47.182Z,73
2017-02-26T15:09:01.557Z,73
2017-02-26T15:10:16.718Z,73
2017-02-26T15:11:34.241Z,73
2017-02-26T15:12:49.913Z,73
2017-02-26T15:14:06.495Z,73
2017-02-26T15:15:21.206Z,73
2017-02-26T15:16:35.911Z,73
2017-02-26T15:17:51.197Z,73
2017-02-26T15:19:05.874Z,73
2017-02-26T15:20:20.335Z,73
2017-02-26T15:21:36.768Z,73
2017-02-26T15:22:51.082Z,73
2017-02-26T15:24:05.331Z,73
2017-02-26T15:25:21.600Z,73
2017-02-26T15:26:36.349Z,73
2017-02-26T15:27:50.988Z,73
2017-02-26T15:29:09.281Z,73
2017-02-26T15:30:24.556Z,73
2017-02-26T15:31:39.083Z,73
2017-02-26T15:32:53.635Z,73
2017-02-26T15:34:09.083Z,73
2017-02-26T15:35:23.724Z,73
2017-02-26T15:36:38.723Z,73
2017-02-26T15:37:53.488Z,73
2017-02-26T15:39:08.941Z,73
2017-02-26T15:40:23.659Z,73
2017-02-26T15:41:40.262Z,73
2017-02-26T15:42:56.642Z,73
2017-02-26T15:44:12.749Z,73
2017-02-26T15:45:29.138Z,73
2017-02-26T15:46:45.611Z,73
2017-02-26T15:48:29.768Z,73
2017-02-26T15:49:45.551Z,73
2017-02-26T15:51:00.913Z,73
2017-02-26T15:52:16.491Z,73
2017-02-26T15:55:29.985Z,72
2017-02-26T15:56:44.972Z,72
2017-02-26T15:57:59.988Z,73
2017-02-26T15:59:15.083Z,72
2017-02-26T16:00:29.406Z,72
2017-02-26T16:01:43.456Z,72
2017-02-26T16:02:58.141Z,72
2017-02-26T16:04:12.510Z,72
2017-02-26T16:05:27.164Z,72
2017-02-26T16:06:41.832Z,72
2017-02-26T16:07:56.120Z,72
2017-02-26T16:09:11.374Z,73
2017-02-26T16:10:27.707Z,73
2017-02-26T16:11:42.287Z,73
2017-02-26T16:12:58.183Z,73
2017-02-26T16:14:14.360Z,73
2017-02-26T16:15:29.318Z,73
2017-02-26T16:16:43.451Z,73
2017-02-26T16:17:58.287Z,73
2017-02-26T16:19:14.639Z,73
2017-02-26T16:20:29.953Z,73
2017-02-26T16:21:45.550Z,73
2017-02-26T16:22:59.778Z,72
2017-02-26T16:24:13.933Z,72
2017-02-26T16:25:28.690Z,72
2017-02-26T16:26:43.502Z,72
2017-02-26T16:27:58.129Z,72
2017-02-26T16:29:12.742Z,72
2017-02-26T16:30:28.240Z,72
2017-02-26T16:31:43.963Z,72
2017-02-26T16:32:59.001Z,72
2017-02-26T16:34:13.474Z,72
2017-02-26T16:35:27.738Z,72
2017-02-26T16:36:42.468Z,72
2017-02-26T16:37:57.531Z,72
2017-02-26T16:39:12.085Z,72
2017-02-26T16:40:26.237Z,72
2017-02-26T16:41:41.063Z,72
2017-02-26T16:42:55.754Z,72
2017-02-26T16:44:10.941Z,72
2017-02-26T16:45:25.660Z,72
2017-02-26T16:46:41.026Z,72
2017-02-26T16:47:57.799Z,72
2017-02-26T16:49:12.514Z,72
2017-02-26T16:50:26.661Z,72
2017-02-26T16:51:41.586Z,72
2017-02-26T16:52:56.700Z,72
2017-02-26T16:54:11.656Z,72
2017-02-26T16:55:25.760Z,72
2017-02-26T16:56:41.064Z,72
2017-02-26T16:57:56.854Z,72
2017-02-26T16:59:13.280Z,72
2017-02-26T17:00:28.627Z,72
2017-02-26T17:01:43.188Z,72
2017-02-26T17:02:58.553Z,72
2017-02-26T17:04:13.927Z,72
2017-02-26T17:05:28.917Z,72
2017-02-26T17:06:43.941Z,72
2017-02-26T17:07:59.123Z,72
2017-02-26T17:09:14.011Z,72
2017-02-26T17:10:29.184Z,72
2017-02-26T17:11:45.477Z,72
2017-02-26T17:13:01.399Z,72
2017-02-26T17:14:15.805Z,72
2017-02-26T17:15:30.453Z,72
2017-02-26T17:16:45.040Z,72
2017-02-26T17:18:00.081Z,72
2017-02-26T17:19:16.489Z,72
2017-02-26T17:20:30.815Z,72
2017-02-26T17:21:46.680Z,72
2017-02-26T17:23:03.001Z,72
2017-02-26T17:24:18.226Z,72
2017-02-26T17:25:33.102Z,72
2017-02-26T17:26:48.683Z,72
2017-02-26T17:28:04.192Z,72
2017-02-26T17:29:20.761Z,72
2017-02-26T17:30:36.109Z,72
2017-02-26T17:31:52.164Z,71
2017-02-26T17:33:06.387Z,71
2017-02-26T17:34:22.113Z,72
2017-02-26T17:41:03.884Z,71
2017-02-26T17:42:19.793Z,72
2017-02-26T17:43:35.351Z,72
2017-02-26T17:44:53.203Z,72
2017-02-26T17:46:47.369Z,71
2017-02-26T17:48:02.087Z,71
2017-02-26T17:49:17.555Z,71
2017-02-26T17:50:32.802Z,71
2017-02-26T17:51:48.509Z,71
2017-02-26T17:53:05.088Z,71
2017-02-26T17:54:21.497Z,71
2017-02-26T17:55:35.685Z,71
2017-02-26T17:56:49.786Z,71
2017-02-26T17:58:05.337Z,71
2017-02-26T17:59:20.742Z,71
2017-02-26T18:00:36.327Z,71
2017-02-26T18:01:51.005Z,71
2017-02-26T18:03:05.112Z,71
2017-02-26T18:04:19.793Z,71
2017-02-26T18:05:34.458Z,71
2017-02-26T18:06:52.467Z,71
2017-02-26T18:08:08.006Z,71
2017-02-26T18:09:25.129Z,71
2017-02-26T18:10:41.451Z,71
2017-02-26T18:11:56.660Z,71
2017-02-26T18:13:11.313Z,71
2017-02-26T18:14:25.955Z,71
2017-02-26T18:15:40.192Z,71
2017-02-26T18:16:56.695Z,71
2017-02-26T18:18:11.469Z,71